Time;durP1;ratioP1;P1;durP2;ratioP2;P2;SDS_P1;SDS_P2;PMS_P1;PMS_P2;Temp;Humidity;BMP_temperature;BMP_pressure;BME280_temperature;BME280_humidity;BME280_pressure;Samples;Min_cycle;Max_cycle;Signal;HPM_P1;HPM_P2
2023/10/08 00:00:49;;;;;;;3.03;1.80;;;;;;;11.26;100.00;99515.09;4858862;29;20445;-86
2023/10/08 00:03:15;;;;;;;;;;;;;;;11.26;100.00;99514.28;4873328;29;20082;-85
2023/10/08 00:05:41;;;;;;;2.65;1.40;;;;;;;11.00;100.00;99482.56;4915020;29;20399;-85
2023/10/08 00:08:08;;;;;;;1.98;1.33;;;;;;;11.31;100.00;99533.97;4917756;29;20104;-86
2023/10/08 00:10:39;;;;;;;1.90;1.30;;;;;;;11.16;100.00;99496.47;4934255;29;20039;-86
2023/10/08 00:13:07;;;;;;;2.85;1.60;;;;;;;11.31;100.00;99518.31;4918313;29;20083;-86
2023/10/08 00:15:35;;;;;;;1.73;1.35;;;;;;;11.28;100.00;99509.81;4918036;29;20023;-86
2023/10/08 00:18:01;;;;;;;2.15;1.45;;;;;;;11.20;100.00;99515.41;4988410;28;20064;-86
2023/10/08 00:20:34;;;;;;;2.08;1.30;;;;;;;11.39;100.00;99547.44;4996113;28;20497;-86
2023/10/08 00:23:02;;;;;;;3.35;1.40;;;;;;;11.37;100.00;99551.03;5013828;28;20022;-86
2023/10/08 00:25:27;;;;;;;2.20;1.60;;;;;;;11.43;100.00;99546.38;5012231;28;20026;-87
2023/10/08 00:27:53;;;;;;;1.42;1.13;;;;;;;11.41;100.00;99540.38;5014157;28;20042;-86
2023/10/08 00:30:18;;;;;;;1.58;1.10;;;;;;;11.42;100.00;99529.03;5012693;28;20180;-85
2023/10/08 00:32:44;;;;;;;3.00;1.42;;;;;;;11.54;100.00;99530.13;5012139;28;20032;-86
2023/10/08 00:35:20;;;;;;;0.98;0.80;;;;;;;11.59;100.00;99530.75;5028955;28;20543;-86
2023/10/08 00:37:47;;;;;;;1.30;0.95;;;;;;;11.62;100.00;99522.75;4995716;28;20029;-86
2023/10/08 00:40:13;;;;;;;1.38;1.08;;;;;;;11.74;100.00;99523.88;5013696;28;20112;-86
2023/10/08 00:42:45;;;;;;;1.63;1.30;;;;;;;11.77;100.00;99530.72;5012114;28;20030;-86
2023/10/08 00:45:14;;;;;;;2.08;0.98;;;;;;;11.60;100.00;99508.13;5013612;28;20121;-86
2023/10/08 00:47:43;;;;;;;1.20;0.80;;;;;;;11.44;100.00;99495.03;4995601;28;20040;-86
2023/10/08 00:50:42;;;;;;;1.00;0.90;;;;;;;11.63;100.00;99540.13;5013431;28;20030;-86
2023/10/08 00:53:00;;;;;;;1.58;1.00;;;;;;;11.56;100.00;99554.41;5013335;28;20156;-86
2023/10/08 00:55:28;;;;;;;1.48;0.98;;;;;;;11.53;100.00;99538.06;5012992;28;20030;-86
2023/10/08 00:58:08;;;;;;;1.67;1.33;;;;;;;11.29;100.00;99501.06;4995215;28;20477;-86
2023/10/08 01:00:39;;;;;;;1.10;1.00;;;;;;;11.53;100.00;99532.84;5012908;28;20539;-86
2023/10/08 01:03:14;;;;;;;2.00;1.20;;;;;;;11.45;100.00;99531.47;5011749;28;20064;-86
2023/10/08 01:05:46;;;;;;;1.20;1.10;;;;;;;11.44;100.00;99521.97;5013053;28;20376;-85
2023/10/08 01:08:17;;;;;;;1.23;1.13;;;;;;;11.34;100.00;99507.72;5016314;28;20041;-85
2023/10/08 01:10:46;;;;;;;3.33;1.48;;;;;;;11.47;100.00;99532.25;5014943;28;20546;-86
2023/10/08 01:13:16;;;;;;;1.23;1.13;;;;;;;11.51;100.00;99514.69;5032710;28;20029;-87
2023/10/08 01:15:44;;;;;;;1.63;1.23;;;;;;;11.54;100.00;99527.53;5031403;28;20032;-86
2023/10/08 01:18:17;;;;;;;1.98;1.50;;;;;;;11.34;100.00;99492.09;5032768;28;20061;-86
2023/10/08 01:20:52;;;;;;;1.50;1.38;;;;;;;11.41;100.00;99537.75;5014711;28;20056;-86
2023/10/08 01:23:21;;;;;;;1.35;1.23;;;;;;;11.33;100.00;99519.06;5014941;28;20029;-86
2023/10/08 01:25:52;;;;;;;3.78;1.55;;;;;;;11.53;100.00;99544.13;4990403;28;20038;-86
2023/10/08 01:28:25;;;;;;;5.00;1.38;;;;;;;11.65;100.00;99553.06;4977967;28;20402;-86
2023/10/08 01:30:54;;;;;;;1.95;1.33;;;;;;;11.46;100.00;99519.25;5010081;28;20049;-87
2023/10/08 01:33:21;;;;;;;2.20;1.70;;;;;;;11.63;100.00;99527.06;5010245;28;20029;-86
2023/10/08 01:35:48;;;;;;;4.80;1.92;;;;;;;11.66;100.00;99545.16;5009969;28;20065;-86
2023/10/08 01:38:14;;;;;;;1.80;1.30;;;;;;;11.71;100.00;99558.81;5010161;28;20036;-86
2023/10/08 01:40:41;;;;;;;2.10;1.40;;;;;;;11.66;100.00;99546.91;5009858;28;20038;-87
2023/10/08 01:43:07;;;;;;;1.73;1.63;;;;;;;11.62;100.00;99561.03;5010213;28;20470;-86
2023/10/08 01:45:40;;;;;;;3.65;1.80;;;;;;;11.62;100.00;99561.03;4993397;28;20061;-87
2023/10/08 01:48:09;;;;;;;2.75;1.40;;;;;;;11.71;100.00;99587.53;4993592;28;20433;-86
2023/10/08 01:50:35;;;;;;;2.50;1.80;;;;;;;11.49;100.00;99574.72;4993384;28;20541;-87
2023/10/08 01:53:00;;;;;;;4.72;1.70;;;;;;;11.53;100.00;99578.03;4993438;28;20041;-87
2023/10/08 01:55:26;;;;;;;1.83;1.40;;;;;;;11.57;100.00;99576.94;4993476;28;20029;-87
2023/10/08 01:57:52;;;;;;;2.03;1.42;;;;;;;11.32;100.00;99521.75;5013292;28;20127;-86
2023/10/08 02:00:19;;;;;;;2.08;1.50;;;;;;;11.63;100.00;99575.78;5014335;28;20071;-86
2023/10/08 02:02:46;;;;;;;4.07;1.73;;;;;;;11.54;100.00;99561.44;5031746;28;20032;-86
2023/10/08 02:05:14;;;;;;;2.45;1.30;;;;;;;11.70;100.00;99591.03;5014279;28;20025;-86
2023/10/08 02:07:40;;;;;;;1.83;1.30;;;;;;;11.60;100.00;99565.53;5013929;28;20036;-86
2023/10/08 02:10:07;;;;;;;1.25;1.15;;;;;;;11.73;100.00;99580.44;5014099;28;20042;-87
2023/10/08 02:12:32;;;;;;;4.32;1.70;;;;;;;11.71;100.00;99592.75;5031700;28;20029;-86
2023/10/08 02:14:58;;;;;;;4.15;1.75;;;;;;;11.67;100.00;99599.03;5031561;28;20076;-86
2023/10/08 02:17:23;;;;;;;3.95;1.27;;;;;;;11.69;100.00;99630.25;5013981;28;20021;-87
2023/10/08 02:19:48;;;;;;;1.15;1.00;;;;;;;11.68;100.00;99633.78;5031629;28;20619;-86
2023/10/08 02:22:13;;;;;;;3.22;1.60;;;;;;;11.49;100.00;99619.06;5030324;28;20477;-86
2023/10/08 02:24:39;;;;;;;2.88;1.38;;;;;;;11.68;100.00;99642.47;5030455;28;20057;-87
2023/10/08 02:27:06;;;;;;;3.88;1.45;;;;;;;11.46;100.00;99621.84;5014081;28;20029;-86
2023/10/08 02:29:32;;;;;;;1.95;1.30;;;;;;;11.58;100.00;99669.06;5031600;28;20052;-86
2023/10/08 02:31:57;;;;;;;2.88;1.65;;;;;;;11.58;100.00;99671.69;5013971;28;20030;-86
2023/10/08 02:34:23;;;;;;;3.67;1.67;;;;;;;11.57;100.00;99665.63;5013929;28;20128;-86
2023/10/08 02:36:48;;;;;;;2.92;1.35;;;;;;;11.41;100.00;99636.84;5031386;28;20681;-86
2023/10/08 02:39:16;;;;;;;5.68;1.60;;;;;;;11.60;100.00;99675.91;5014198;28;20137;-86
2023/10/08 02:41:42;;;;;;;2.72;1.38;;;;;;;11.59;100.00;99652.53;5031513;28;20021;-86
2023/10/08 02:44:11;;;;;;;3.05;1.50;;;;;;;11.42;100.00;99630.75;5013887;28;20030;-86
2023/10/08 02:46:40;;;;;;;2.67;1.75;;;;;;;11.59;100.00;99657.75;5031248;28;20022;-86
2023/10/08 02:49:10;;;;;;;3.33;1.52;;;;;;;11.42;100.00;99637.72;5013753;28;20037;-86
2023/10/08 02:51:35;;;;;;;4.05;1.55;;;;;;;11.66;100.00;99699.06;5031433;28;20030;-87
2023/10/08 02:54:05;;;;;;;2.22;1.63;;;;;;;11.63;100.00;99688.81;5013753;28;20036;-87
2023/10/08 02:56:32;;;;;;;2.83;1.20;;;;;;;11.58;100.00;99674.28;5031472;28;20029;-86
2023/10/08 02:58:57;;;;;;;3.85;1.48;;;;;;;11.38;100.00;99650.06;5031579;28;20495;-86
2023/10/08 03:01:23;;;;;;;2.72;1.60;;;;;;;11.51;100.00;99681.59;5013629;28;20021;-86
2023/10/08 03:03:48;;;;;;;3.95;1.63;;;;;;;11.42;100.00;99666.41;5031453;28;20040;-87
2023/10/08 03:06:14;;;;;;;4.30;1.70;;;;;;;11.30;100.00;99654.81;5031528;28;20028;-86
2023/10/08 03:08:43;;;;;;;5.88;2.00;;;;;;;11.30;100.00;99661.81;5029813;28;20115;-87
2023/10/08 03:11:16;;;;;;;3.50;1.88;;;;;;;11.48;100.00;99686.97;5028832;28;20540;-87
2023/10/08 03:13:46;;;;;;;3.15;1.52;;;;;;;11.44;100.00;99694.09;5012099;28;20038;-86
2023/10/08 03:16:13;;;;;;;3.97;1.70;;;;;;;11.49;100.00;99706.91;5028855;28;20069;-86
2023/10/08 03:18:44;;;;;;;6.97;1.95;;;;;;;11.07;100.00;99647.28;5028670;28;20037;-87
2023/10/08 03:21:20;;;;;;;3.08;1.63;;;;;;;11.32;100.00;99705.13;5028774;28;20487;-87
2023/10/08 03:23:50;;;;;;;5.03;1.80;;;;;;;11.28;100.00;99698.38;5012113;28;20120;-86
2023/10/08 03:26:33;;;;;;;4.90;1.95;;;;;;;11.24;100.00;99700.28;5029903;28;20183;-87
2023/10/08 03:29:07;;;;;;;5.45;2.13;;;;;;;11.34;100.00;99710.28;5015537;28;20513;-86
2023/10/08 03:34:15;;;;;;;6.30;2.38;;;;;;;11.45;100.00;99718.41;5032391;28;20120;-86
2023/10/08 03:36:44;;;;;;;4.63;2.25;;;;;;;11.39;100.00;99716.09;5015219;28;20085;-86
2023/10/08 03:39:18;;;;;;;5.38;2.08;;;;;;;11.28;100.00;99694.91;5015503;28;20036;-86
2023/10/08 03:41:58;;;;;;;10.68;2.20;;;;;;;11.40;100.00;99743.88;5015644;28;20029;-87
2023/10/08 03:44:24;;;;;;;6.35;2.13;;;;;;;11.36;100.00;99740.56;5034651;28;20030;-86
2023/10/08 03:46:52;;;;;;;6.60;2.45;;;;;;;11.41;100.00;99751.59;5016389;28;20026;-86
2023/10/08 03:51:46;;;;;;;4.22;1.90;;;;;;;11.18;100.00;99724.03;5034039;28;20041;-86
2023/10/08 03:56:45;;;;;;;4.32;2.30;;;;;;;11.23;100.00;99726.44;5034100;28;20026;-86
2023/10/08 04:01:59;;;;;;;4.78;2.80;;;;;;;11.17;100.00;99734.56;5033810;28;20049;-86
2023/10/08 04:04:31;;;;;;;4.80;2.25;;;;;;;11.36;100.00;99769.25;5032594;28;20132;-86
2023/10/08 04:07:24;;;;;;;8.95;2.65;;;;;;;11.03;100.00;99703.06;5033812;28;20033;-86
2023/10/08 04:09:42;;;;;;;8.48;2.60;;;;;;;11.24;100.00;99734.16;5033573;28;20049;-86
2023/10/08 04:12:10;;;;;;;4.15;2.20;;;;;;;11.28;100.00;99737.47;5016027;28;20025;-86
2023/10/08 04:14:36;;;;;;;8.02;2.92;;;;;;;11.21;100.00;99738.72;5015977;28;20022;-86
2023/10/08 04:17:01;;;;;;;9.98;3.17;;;;;;;11.28;100.00;99728.81;5033799;28;20033;-86
2023/10/08 04:19:27;;;;;;;7.00;3.00;;;;;;;11.13;100.00;99691.31;5032756;28;20092;-86
2023/10/08 04:21:56;;;;;;;4.15;2.47;;;;;;;11.32;100.00;99756.44;5032254;28;20025;-86
2023/10/08 04:24:35;;;;;;;5.72;3.00;;;;;;;11.23;100.00;99758.56;5015959;28;20477;-86
2023/10/08 04:27:03;;;;;;;8.93;3.08;;;;;;;11.38;100.00;99792.66;5033584;28;20036;-86
2023/10/08 04:29:32;;;;;;;4.80;2.72;;;;;;;11.31;100.00;99781.66;5016065;28;20497;-86
2023/10/08 04:32:01;;;;;;;6.65;3.20;;;;;;;11.33;100.00;99786.78;5015599;28;20034;-86
2023/10/08 04:34:29;;;;;;;8.30;3.47;;;;;;;11.13;100.00;99756.47;5015795;28;20029;-87
2023/10/08 04:36:57;;;;;;;7.45;2.90;;;;;;;11.12;100.00;99760.81;5032983;28;20152;-86
2023/10/08 04:39:31;;;;;;;4.40;3.13;;;;;;;11.12;100.00;99763.41;5033467;28;20036;-87
2023/10/08 04:42:00;;;;;;;7.20;3.28;;;;;;;11.15;100.00;99788.50;5015465;28;20372;-86
2023/10/08 04:44:25;;;;;;;8.45;3.92;;;;;;;10.98;100.00;99777.09;5015741;28;20389;-86
2023/10/08 04:46:52;;;;;;;7.13;3.20;;;;;;;11.01;100.00;99778.72;5015344;28;20026;-86
2023/10/08 04:49:30;;;;;;;8.85;4.25;;;;;;;11.23;100.00;99817.69;5015443;28;20039;-85
2023/10/08 04:51:59;;;;;;;8.05;3.58;;;;;;;10.99;100.00;99798.78;5015200;28;20523;-87
2023/10/08 04:54:29;;;;;;;9.35;4.13;;;;;;;10.90;100.00;99766.19;5033347;28;20025;-86
2023/10/08 04:56:59;;;;;;;7.80;3.63;;;;;;;11.20;100.00;99823.88;5014904;28;20073;-87
2023/10/08 04:59:34;;;;;;;10.50;4.78;;;;;;;11.27;100.00;99840.09;5015349;28;20028;-87
2023/10/08 05:02:20;;;;;;;10.98;4.35;;;;;;;11.19;100.00;99837.84;5014799;28;20044;-87
2023/10/08 05:07:21;;;;;;;10.00;4.10;;;;;;;11.14;100.00;99859.81;5032962;28;20033;-87
2023/10/08 05:10:11;;;;;;;10.07;4.43;;;;;;;11.10;100.00;99860.88;5032742;28;20404;-86
2023/10/08 05:12:37;;;;;;;9.88;5.40;;;;;;;11.19;100.00;99870.88;5032933;28;20025;-86
2023/10/08 05:15:21;;;;;;;12.10;5.22;;;;;;;11.12;100.00;99872.06;5032494;28;20485;-85
2023/10/08 05:23:19;;;;;;;9.18;4.95;;;;;;;11.16;100.00;99902.28;5032654;28;20040;-86
2023/10/08 05:25:58;;;;;;;12.35;5.15;;;;;;;11.13;100.00;99892.03;5032555;28;20033;-86
2023/10/08 05:28:24;;;;;;;7.40;4.57;;;;;;;11.22;100.00;99920.28;5014747;28;20104;-88
2023/10/08 05:34:14;;;;;;;11.68;5.40;;;;;;;11.26;100.00;99921.00;4970946;28;20034;-87
2023/10/08 05:36:50;;;;;;;9.55;5.95;;;;;;;11.26;100.00;99931.44;4971031;28;20055;-87
2023/10/08 05:42:13;;;;;;;10.25;7.25;;;;;;;11.06;100.00;99954.00;4970769;28;20401;-87
2023/10/08 05:55:35;;;;;;;15.30;8.50;;;;;;;11.19;100.00;99986.44;4951790;29;20107;-87
2023/10/08 05:58:13;;;;;;;14.73;7.47;;;;;;;11.15;100.00;100000.50;4951240;29;20587;-87
2023/10/08 06:03:37;;;;;;;13.98;8.13;;;;;;;10.96;100.00;99968.34;4932463;29;20047;-87
2023/10/08 06:06:22;;;;;;;12.93;7.90;;;;;;;11.20;100.00;100000.31;4932013;29;20406;-87
2023/10/08 06:12:06;;;;;;;11.60;8.05;;;;;;;11.10;100.00;99979.03;4951775;29;20070;-87
2023/10/08 06:17:33;;;;;;;16.60;7.88;;;;;;;11.40;100.00;100033.34;4951524;29;20103;-87
2023/10/08 06:20:16;;;;;;;12.75;8.15;;;;;;;11.28;100.00;100013.88;4951128;29;20183;-86
2023/10/08 06:22:42;;;;;;;17.60;9.18;;;;;;;11.20;100.00;100019.41;4935410;29;20468;-87
2023/10/08 06:25:17;;;;;;;13.00;8.15;;;;;;;11.24;100.00;100039.22;4951332;29;20047;-87
2023/10/08 06:27:44;;;;;;;12.35;7.95;;;;;;;11.24;100.00;100057.47;4951402;29;20039;-86
2023/10/08 06:30:16;;;;;;;13.20;7.80;;;;;;;11.14;100.00;100047.53;4951040;29;20031;-87
2023/10/08 06:32:45;;;;;;;16.90;8.77;;;;;;;11.04;100.00;100051.41;4951069;29;20027;-86
2023/10/08 06:35:17;;;;;;;11.73;8.60;;;;;;;11.11;100.00;100065.88;4950961;29;20042;-87
2023/10/08 06:37:49;;;;;;;11.48;6.97;;;;;;;11.10;100.00;100080.69;4951291;29;20571;-88
2023/10/08 06:43:03;;;;;;;11.65;6.78;;;;;;;11.64;100.00;100097.50;5011986;28;20072;-87
2023/10/08 06:45:30;;;;;;;9.27;6.85;;;;;;;11.93;100.00;100084.97;5010769;28;20025;-88
2023/10/08 06:47:57;;;;;;;12.63;6.18;;;;;;;12.24;100.00;100100.91;4994053;28;20466;-87
2023/10/08 06:50:22;;;;;;;8.73;5.47;;;;;;;12.27;100.00;100105.16;4994277;28;20050;-87
2023/10/08 06:52:49;;;;;;;7.45;5.93;;;;;;;11.98;100.00;100093.41;4993967;28;20400;-88
2023/10/08 06:55:17;;;;;;;7.50;5.05;;;;;;;11.87;100.00;100120.00;5010743;28;20042;-87
2023/10/08 06:57:43;;;;;;;9.02;5.57;;;;;;;11.14;100.00;100077.03;5010580;28;20030;-87
2023/10/08 07:00:32;;;;;;;9.07;6.00;;;;;;;11.70;100.00;100133.75;4994930;28;20037;-87
2023/10/08 07:02:56;;;;;;;13.07;7.03;;;;;;;12.11;100.00;100140.69;5015155;28;20420;-87
2023/10/08 07:05:22;;;;;;;7.00;4.78;;;;;;;11.83;100.00;100107.16;4997645;28;20033;-87
2023/10/08 07:07:47;;;;;;;6.65;4.65;;;;;;;11.89;100.00;100146.03;4997784;28;20025;-87
2023/10/08 07:10:13;;;;;;;10.13;4.47;;;;;;;11.78;100.00;100167.34;5033578;28;20034;-86
2023/10/08 07:12:39;;;;;;;8.55;5.22;;;;;;;11.56;100.00;100170.03;5017445;28;20028;-87
2023/10/08 07:15:11;;;;;;;10.25;4.60;;;;;;;11.64;100.00;100186.22;5034790;28;20031;-87
2023/10/08 07:17:40;;;;;;;10.00;4.30;;;;;;;11.33;100.00;100129.25;5034789;28;20018;-87
2023/10/08 07:20:21;;;;;;;4.97;3.55;;;;;;;11.37;100.00;100146.47;5034543;28;20057;-87
2023/10/08 07:22:50;;;;;;;4.38;3.55;;;;;;;11.42;100.00;100167.16;5034905;28;20060;-88
2023/10/08 07:25:20;;;;;;;6.65;3.47;;;;;;;11.40;100.00;100189.84;5017116;28;20032;-87
2023/10/08 07:27:47;;;;;;;6.57;2.83;;;;;;;11.46;100.00;100177.41;5034730;28;20104;-87
2023/10/08 07:30:13;;;;;;;5.57;3.05;;;;;;;11.83;100.00;100188.91;5034464;28;20026;-86
2023/10/08 07:32:38;;;;;;;6.10;2.53;;;;;;;12.23;100.00;100193.22;5016727;28;20036;-86
2023/10/08 07:35:26;;;;;;;5.72;3.25;;;;;;;12.53;100.00;100165.78;5034821;28;20087;-86
2023/10/08 07:37:53;;;;;;;5.68;2.92;;;;;;;12.90;97.04;100197.13;5033679;28;20555;-85
2023/10/08 07:40:20;;;;;;;4.03;3.13;;;;;;;13.11;95.76;100194.41;5016683;28;20392;-86
2023/10/08 07:42:51;;;;;;;4.60;2.60;;;;;;;13.29;95.86;100192.69;5016575;28;20513;-86
2023/10/08 07:45:17;;;;;;;4.00;2.78;;;;;;;13.65;96.14;100198.72;5017000;28;20029;-86
2023/10/08 07:47:43;;;;;;;4.78;2.70;;;;;;;13.85;94.71;100202.91;5034459;28;20029;-87
2023/10/08 07:50:12;;;;;;;5.55;3.03;;;;;;;14.29;95.09;100199.75;5034209;28;20079;-87
2023/10/08 07:52:37;;;;;;;6.32;2.88;;;;;;;14.78;93.28;100193.66;5034406;28;20064;-86
2023/10/08 07:55:04;;;;;;;3.90;2.88;;;;;;;14.90;88.69;100206.09;5034258;28;20114;-87
2023/10/08 07:57:30;;;;;;;3.80;2.75;;;;;;;14.82;87.88;100231.88;5016290;28;20115;-87
2023/10/08 08:00:18;;;;;;;4.78;3.15;;;;;;;14.44;88.29;100221.66;5034175;28;20025;-87
2023/10/08 08:02:44;;;;;;;7.50;3.53;;;;;;;14.25;89.70;100221.81;5016251;28;20033;-86
2023/10/08 08:05:09;;;;;;;4.15;2.67;;;;;;;13.93;87.25;100233.94;5033815;28;20032;-87
2023/10/08 08:07:35;;;;;;;4.85;3.05;;;;;;;13.59;88.17;100235.66;5033992;28;20055;-87
2023/10/08 08:10:01;;;;;;;6.13;2.45;;;;;;;13.24;86.28;100250.47;5032195;28;20173;-86
2023/10/08 08:12:28;;;;;;;5.78;2.50;;;;;;;13.35;88.19;100260.38;5015631;28;20025;-86
2023/10/08 08:14:54;;;;;;;4.72;1.85;;;;;;;12.96;81.12;100229.97;5016031;28;20032;-86
2023/10/08 08:17:23;;;;;;;2.78;1.80;;;;;;;12.91;81.95;100252.88;5034005;28;20025;-86
2023/10/08 08:19:49;;;;;;;6.10;1.60;;;;;;;12.77;78.34;100268.31;5016044;28;20531;-86
2023/10/08 08:22:23;;;;;;;3.10;1.60;;;;;;;12.85;78.94;100264.47;5033488;28;20029;-86
2023/10/08 08:25:15;;;;;;;2.85;1.52;;;;;;;12.37;73.52;100254.44;5015922;28;20503;-86
2023/10/08 08:27:43;;;;;;;;;;;;;;;12.73;76.63;100280.72;5048408;28;20035;-87
2023/10/08 08:30:10;;;;;;;2.40;1.55;;;;;;;12.59;75.70;100246.50;5049725;28;19921;-86
2023/10/08 08:32:39;;;;;;;2.78;1.50;;;;;;;12.71;78.83;100230.25;5028897;28;20118;-87
2023/10/08 08:35:09;;;;;;;4.57;1.83;;;;;;;12.87;75.80;100287.91;5051642;28;20021;-86
2023/10/08 08:37:35;;;;;;;2.85;1.30;;;;;;;12.75;74.71;100294.53;5029899;28;20031;-87
2023/10/08 08:40:26;;;;;;;3.25;1.30;;;;;;;12.66;73.98;100289.72;5025427;28;20013;-87
2023/10/08 08:42:52;;;;;;;1.55;1.33;;;;;;;12.62;75.18;100286.41;5023443;28;20037;-87
2023/10/08 08:45:24;;;;;;;3.78;1.17;;;;;;;12.73;74.87;100293.78;5038884;28;20029;-87
2023/10/08 08:47:51;;;;;;;1.30;1.20;;;;;;;12.58;71.17;100299.69;5027358;28;20025;-87
2023/10/08 08:50:17;;;;;;;2.17;1.30;;;;;;;12.51;73.87;100293.84;5014746;28;20454;-87
2023/10/08 08:52:43;;;;;;;2.53;1.23;;;;;;;12.71;74.24;100304.28;5018281;28;20160;-87
2023/10/08 08:55:14;;;;;;;2.60;1.42;;;;;;;12.65;71.03;100295.88;5039466;28;20107;-87
2023/10/08 08:57:41;;;;;;;2.60;1.50;;;;;;;12.65;72.23;100290.66;5039652;28;20032;-87
2023/10/08 09:00:10;;;;;;;3.60;1.40;;;;;;;12.54;71.22;100285.91;5032559;28;20032;-87
2023/10/08 09:02:37;;;;;;;1.98;1.30;;;;;;;12.46;72.94;100256.66;5034461;28;20032;-88
2023/10/08 09:05:13;;;;;;;5.18;1.52;;;;;;;12.43;73.09;100238.47;5034393;28;20028;-88
2023/10/08 09:08:07;;;;;;;1.45;1.27;;;;;;;12.93;74.24;100305.91;5034451;28;20021;-88
2023/10/08 09:10:37;;;;;;;3.38;1.88;;;;;;;12.79;70.91;100297.88;5034438;28;20044;-88
2023/10/08 09:13:04;;;;;;;1.65;1.20;;;;;;;12.50;73.32;100286.94;5034583;28;20121;-87
2023/10/08 09:15:32;;;;;;;3.22;2.25;;;;;;;12.72;73.08;100320.81;5034891;28;20032;-88
2023/10/08 09:18:00;;;;;;;3.67;1.35;;;;;;;12.39;68.86;100287.44;5034531;28;20032;-88
2023/10/08 09:20:27;;;;;;;1.45;1.15;;;;;;;12.62;71.92;100322.16;5052471;28;20024;-88
2023/10/08 09:23:11;;;;;;;3.00;1.65;;;;;;;12.44;68.96;100315.97;5052223;28;20098;-89
2023/10/08 09:25:37;;;;;;;3.70;1.30;;;;;;;12.26;70.19;100316.75;5034389;28;20060;-88
2023/10/08 09:28:07;;;;;;;2.20;1.08;;;;;;;12.30;72.23;100327.00;5052277;28;20108;-88
2023/10/08 09:30:39;;;;;;;3.65;1.27;;;;;;;12.15;68.69;100320.69;5034400;28;20025;-88
2023/10/08 09:33:09;;;;;;;2.33;1.10;;;;;;;12.22;70.54;100331.72;5034245;28;20086;-87
2023/10/08 09:35:36;;;;;;;0.98;0.90;;;;;;;12.41;70.85;100357.91;5034408;28;20079;-88
2023/10/08 09:38:08;;;;;;;3.08;1.30;;;;;;;12.16;67.98;100324.13;5034355;28;20071;-88
2023/10/08 09:40:36;;;;;;;1.45;1.02;;;;;;;12.29;68.67;100350.56;5052307;28;20029;-88
2023/10/08 09:43:03;;;;;;;1.65;1.13;;;;;;;12.24;68.75;100349.00;5052056;28;20033;-88
2023/10/08 09:45:30;;;;;;;2.03;1.02;;;;;;;12.05;65.88;100361.16;5051234;28;20017;-88
2023/10/08 09:47:56;;;;;;;2.90;1.20;;;;;;;11.89;66.29;100358.31;5033713;28;20025;-88
2023/10/08 09:50:29;;;;;;;1.15;0.93;;;;;;;11.80;68.35;100342.13;5033599;28;20063;-88
2023/10/08 09:52:56;;;;;;;2.53;1.35;;;;;;;12.10;69.01;100390.53;5033783;28;20555;-87
2023/10/08 09:55:21;;;;;;;1.50;1.10;;;;;;;11.98;68.36;100365.75;5051718;28;20108;-88
2023/10/08 09:57:47;;;;;;;1.38;1.10;;;;;;;11.82;67.71;100359.44;5051950;28;20133;-88
2023/10/08 10:00:18;;;;;;;1.48;1.08;;;;;;;11.87;67.56;100382.75;5050961;28;20548;-88
2023/10/08 10:02:45;;;;;;;2.30;1.63;;;;;;;11.93;67.91;100391.22;5008855;28;20046;-88
2023/10/08 10:05:21;;;;;;;2.70;1.33;;;;;;;11.97;68.44;100391.94;4992280;28;20037;-88
2023/10/08 10:07:48;;;;;;;1.42;1.00;;;;;;;12.05;69.76;100392.50;5009373;28;20049;-88
2023/10/08 10:10:38;;;;;;;1.83;1.20;;;;;;;12.10;68.63;100395.75;4992250;28;20076;-88
2023/10/08 10:13:04;;;;;;;1.35;1.05;;;;;;;12.14;69.63;100389.50;4992573;28;20717;-89
2023/10/08 10:15:34;;;;;;;1.50;1.20;;;;;;;12.20;68.62;100402.28;4992839;28;20157;-89
2023/10/08 10:18:13;;;;;;;2.05;1.00;;;;;;;12.29;68.08;100400.19;4992626;28;20042;-90
2023/10/08 10:20:45;;;;;;;4.07;1.30;;;;;;;12.15;66.00;100392.94;4992902;28;20026;-89
2023/10/08 10:23:42;;;;;;;1.25;0.90;;;;;;;12.25;64.94;100404.69;4992641;28;20034;-89
2023/10/08 10:26:26;;;;;;;1.38;1.20;;;;;;;12.31;66.55;100399.25;4992745;28;20029;-88
2023/10/08 10:29:16;;;;;;;2.00;1.27;;;;;;;12.34;67.07;100408.69;4992925;28;20377;-87
2023/10/08 10:31:46;;;;;;;1.48;1.25;;;;;;;12.27;67.29;100389.00;4992542;28;20553;-88
2023/10/08 10:34:13;;;;;;;1.30;1.08;;;;;;;12.24;68.28;100374.28;5007264;28;20038;-88
2023/10/08 10:36:40;;;;;;;1.35;1.00;;;;;;;12.15;65.71;100359.00;5034251;28;20064;-86
2023/10/08 10:39:26;;;;;;;2.80;1.30;;;;;;;12.41;67.06;100397.09;5054890;28;20067;-87
2023/10/08 10:41:57;;;;;;;1.63;1.00;;;;;;;12.40;66.46;100408.44;5055076;28;20067;-87
2023/10/08 10:44:23;;;;;;;2.53;1.33;;;;;;;12.28;64.66;100407.19;5054980;28;20376;-86
2023/10/08 10:46:52;;;;;;;4.07;1.00;;;;;;;12.25;65.11;100407.31;5054867;28;20037;-87
2023/10/08 10:49:21;;;;;;;2.05;1.25;;;;;;;12.23;64.54;100402.16;5054990;28;20025;-87
2023/10/08 10:51:52;;;;;;;1.92;1.00;;;;;;;12.18;64.60;100379.78;5036966;28;20036;-86
2023/10/08 10:54:23;;;;;;;1.20;1.10;;;;;;;12.23;63.20;100404.78;5054937;28;20021;-86
2023/10/08 10:57:03;;;;;;;2.35;1.58;;;;;;;12.24;64.52;100411.69;5019424;28;20092;-86
2023/10/08 10:59:37;;;;;;;1.70;1.60;;;;;;;12.14;65.43;100393.88;5035261;28;20057;-86
2023/10/08 11:02:07;;;;;;;1.88;1.40;;;;;;;12.26;65.13;100405.53;5053695;28;20063;-86
2023/10/08 11:04:45;;;;;;;2.28;1.55;;;;;;;12.15;66.11;100387.72;5037176;28;20376;-87
2023/10/08 11:07:12;;;;;;;3.72;2.15;;;;;;;12.34;67.01;100398.25;5036366;28;20033;-86
2023/10/08 11:09:44;;;;;;;2.00;1.40;;;;;;;12.33;65.25;100402.63;5055112;28;20045;-86
2023/10/08 11:12:12;;;;;;;1.42;1.33;;;;;;;12.52;66.38;100417.53;5036694;28;20511;-86
2023/10/08 11:14:42;;;;;;;1.95;1.10;;;;;;;12.41;63.64;100392.69;5055035;28;20025;-86
2023/10/08 11:17:26;;;;;;;2.88;1.23;;;;;;;12.58;63.14;100412.88;5054352;28;20025;-86
2023/10/08 11:19:52;;;;;;;1.63;1.20;;;;;;;12.59;64.47;100408.50;5054835;28;20032;-86
2023/10/08 11:22:18;;;;;;;3.13;1.10;;;;;;;12.60;65.73;100411.06;5036370;28;20456;-87
2023/10/08 11:24:48;;;;;;;2.97;1.33;;;;;;;12.31;65.45;100362.66;5036862;28;20056;-86
2023/10/08 11:27:17;;;;;;;1.13;0.93;;;;;;;12.51;61.79;100418.44;5054111;28;20082;-86
2023/10/08 11:29:47;;;;;;;1.85;1.13;;;;;;;12.51;63.77;100413.22;5036609;28;20094;-86
2023/10/08 11:32:17;;;;;;;2.85;1.05;;;;;;;12.69;64.47;100422.91;5053725;28;20132;-87
2023/10/08 11:34:49;;;;;;;2.45;1.58;;;;;;;12.54;63.03;100406.09;5036626;28;20036;-86
2023/10/08 11:37:19;;;;;;;2.30;1.58;;;;;;;12.64;63.99;100402.19;5054043;28;20025;-86
2023/10/08 11:39:46;;;;;;;4.03;2.17;;;;;;;12.78;64.13;100413.81;5054232;28;20170;-86
2023/10/08 11:44:55;;;;;;;1.52;1.17;;;;;;;12.89;63.75;100401.09;5054285;28;20542;-86
2023/10/08 11:47:24;;;;;;;1.23;1.05;;;;;;;12.87;63.04;100405.56;5050791;28;20028;-86
2023/10/08 11:49:54;;;;;;;1.88;1.50;;;;;;;12.75;63.66;100388.63;5035993;28;20061;-86
2023/10/08 11:52:23;;;;;;;1.55;1.10;;;;;;;12.78;62.06;100406.81;5053489;28;20037;-86
2023/10/08 11:54:49;;;;;;;3.20;1.23;;;;;;;12.79;61.49;100418.97;5035616;28;20025;-86
2023/10/08 11:57:19;;;;;;;3.38;1.48;;;;;;;12.45;61.40;100377.75;5053605;28;20029;-86
2023/10/08 11:59:46;;;;;;;2.13;1.02;;;;;;;12.63;62.19;100400.47;5036042;28;20025;-85
2023/10/08 12:02:16;;;;;;;1.52;1.00;;;;;;;12.74;63.29;100407.84;5053513;28;20487;-85
2023/10/08 12:04:42;;;;;;;1.88;1.40;;;;;;;12.81;63.82;100398.84;5011765;28;20034;-85
2023/10/08 12:07:07;;;;;;;2.00;1.48;;;;;;;12.64;61.98;100386.50;4994914;28;20100;-85
2023/10/08 12:09:37;;;;;;;1.30;1.20;;;;;;;12.72;63.90;100376.56;4991787;28;20216;-86
2023/10/08 12:12:09;;;;;;;1.08;0.98;;;;;;;12.96;62.25;100411.22;4992155;28;20085;-85
2023/10/08 12:14:34;;;;;;;;;;;;;;;13.08;63.21;100432.53;4992681;28;20505;-84
2023/10/08 12:17:00;;;;;;;2.28;1.45;;;;;;;12.98;60.60;100419.84;4992141;28;20052;-84
2023/10/08 12:19:26;;;;;;;2.17;1.50;;;;;;;12.96;61.74;100410.38;4991728;28;20030;-84
2023/10/08 12:21:53;;;;;;;1.70;1.00;;;;;;;12.89;59.47;100422.88;4975653;28;20045;-84
2023/10/08 12:24:19;;;;;;;1.20;1.00;;;;;;;12.83;59.63;100412.69;4991677;28;20569;-84
2023/10/08 12:26:45;;;;;;;2.13;1.05;;;;;;;12.94;60.53;100431.38;4991973;28;20038;-84